Shannon, Ireland

11:11 AM IST on July 23, 2014 (GMT +0100)
Shannon (EINN) Elev 66 ft | 52.70 °N, 8.92 °W | Change Station

Current weather conditions updated 11 minutes ago

Mostly Cloudy
Mostly Cloudy
68 °F
Feels Like 68 °F
N
6
Wind Variable Wind from SE

Today is forecast to be Cooler than yesterday. Few showers.

Today
High -- | Low -- °F
--% Chance of Precip.
Yesterday
High -- | Low -- °F
Precip. -- in
5:40 AM 9:42 PM
Waning Crescent, 11% visible
Pressure 30.15 in
Visibility 6.2 miles
Clouds Few 600 ft
Mostly Cloudy 1100 ft
Dew Point 63 °F
Humidity 83%
Rainfall 0.00 in
Snow Depth Not available.
UV 3 out of 12
Pollen Not available.
Air Quality Not available.
Flu Activity Not available.
METAR EINN 231000Z 13005KT 9999 FEW006 BKN011 20/17 Q1021 NOSIG

More Conditions Fewer Conditions

Pressure 30.15 in
Visibility 6.2 miles
Clouds Few 600 ft
Mostly Cloudy 1100 ft
Dew Point 63 °F
Humidity 83%
Rainfall 0.00 in
Snow Depth Not available.
UV 3 out of 12
Pollen Not available.
Air Quality Not available.
Flu Activity Not available.
METAR EINN 231000Z 13005KT 9999 FEW006 BKN011 20/17 Q1021 NOSIG

More Conditions Fewer Conditions

10-Day Weather Forecast

Almanac

Astronomy

Jul. 23, 2014 Rise Set
Actual Time 5:40 AM IST 9:42 PM IST
Civil Twilight 4:55 AM IST 10:27 PM IST
Nautical Twilight 3:51 AM IST 11:31 PM IST
Astronomical Twilight 2:14 AM IST 1:09 AM IST
Moon 2:53 AM IST 6:57 PM IST
Length of Visible Light 17h 31m
Length of Day
16h 02m
Tomorrow will be 2m 54s shorter.
Waning Crescent, 11% of the Moon is Illuminated
Today
Waning Crescent
Jul 26
New
Aug 3
First Quarter
Aug 10
Full
Aug 17
Last Quarter

Yesterday's Extremes

Country Highs Country Lows

Community

WunderPhotos

Upload Photos

1,736,535 photos uploaded!

Nearby

Snow Depth

Not available.

Earthquake Activity

City Distance Mag. Time & Date
No recent earthquake activity has been reported nearby.
Minimum magnitude displayed is 2.5.

Coastal Water Temperatures

Place Temperature
No Stations Reporting

Nearby Weather Stations

Station Location Temp. Heat Index Dew Point Humidity Wind Precip. Elev Updated Type
Clonigulane, Kilmihil 70.5 °F - 65 °F 84% WNW  at  1.6 mph 0.00 in / hr 354 ft 11:09 AM IST Normal
Gardenfield, Newcastle West 70.9 °F 72 °F 63 °F 77% North  at  5.3 mph 0.00 in / hr 243 ft 11:11 AM IST Rapid Fire
Clare Glens, Newport, Clare Glens 69.3 °F - 59 °F 69% WSW  at  2.1 mph 0.00 in / hr 367 ft 11:11 AM IST Normal

Show More Stations Show Fewer Stations